createdAt,value
2022-09-27T00:04:18.735Z,11.17
2022-09-27T00:09:20.630Z,10.98
2022-09-27T00:14:22.492Z,11.10
2022-09-27T00:19:25.738Z,11.07
2022-09-27T00:24:27.634Z,11.06
2022-09-27T00:29:29.526Z,11.03
2022-09-27T00:34:31.486Z,11.03
2022-09-27T00:39:33.531Z,11.13
2022-09-27T00:44:38.697Z,11.16
2022-09-27T00:49:47.530Z,11.07
2022-09-27T00:54:55.618Z,11.15
2022-09-27T01:00:10.001Z,11.04
2022-09-27T01:05:14.815Z,11.02
2022-09-27T01:10:18.632Z,10.95
2022-09-27T01:15:30.168Z,10.92
2022-09-27T01:20:53.935Z,10.93
2022-09-27T01:26:05.070Z,11.06
2022-09-27T01:31:26.085Z,10.98
2022-09-27T01:36:36.438Z,10.86
2022-09-27T01:42:21.375Z,10.84
2022-09-27T01:48:06.631Z,10.80
2022-09-27T01:53:36.382Z,10.96
2022-09-27T01:59:15.652Z,10.82
2022-09-27T02:04:30.550Z,10.78
2022-09-27T02:09:50.165Z,10.78
2022-09-27T02:15:12.422Z,11.00
2022-09-27T02:20:29.776Z,11.00
2022-09-27T02:25:44.537Z,10.96
2022-09-27T02:30:48.534Z,10.98
2022-09-27T02:35:56.439Z,11.02
2022-09-27T02:40:58.325Z,10.86
2022-09-27T02:46:15.533Z,10.66
2022-09-27T02:51:54.814Z,10.72
2022-09-27T02:57:24.022Z,10.74
2022-09-27T03:02:41.029Z,10.78
2022-09-27T03:08:19.126Z,10.75
2022-09-27T03:13:21.198Z,10.59
2022-09-27T03:18:23.299Z,10.31
2022-09-27T03:23:44.043Z,9.99
2022-09-27T03:28:46.142Z,9.85
2022-09-27T03:33:47.964Z,9.82
2022-09-27T03:38:50.178Z,9.93
2022-09-27T03:43:57.901Z,9.76
2022-09-27T03:49:03.140Z,9.74
2022-09-27T03:54:05.049Z,9.66
2022-09-27T03:59:07.051Z,9.59
2022-09-27T04:04:29.187Z,9.39
2022-09-27T04:09:31.256Z,9.29
2022-09-27T04:14:36.376Z,9.15
2022-09-27T04:19:58.300Z,9.02
2022-09-27T04:25:02.605Z,8.93
2022-09-27T04:30:12.330Z,8.93
2022-09-27T04:36:02.244Z,8.95
2022-09-27T04:41:04.685Z,8.97
2022-09-27T04:46:09.330Z,8.99
2022-09-27T04:51:11.219Z,8.99
2022-09-27T04:56:14.012Z,8.96
2022-09-27T05:01:16.385Z,8.99
2022-09-27T05:06:20.823Z,9.00
2022-09-27T05:11:23.306Z,9.12
2022-09-27T05:16:43.788Z,9.20
2022-09-27T05:22:04.159Z,9.22
2022-09-27T05:27:11.621Z,9.18
2022-09-27T05:32:13.820Z,9.12
2022-09-27T05:37:15.808Z,9.10
2022-09-27T05:42:19.026Z,9.19
2022-09-27T05:47:20.832Z,9.12
2022-09-27T05:52:23.342Z,9.21
2022-09-27T05:57:26.110Z,9.29
2022-09-27T06:02:35.283Z,9.35
2022-09-27T06:08:00.800Z,9.45
2022-09-27T06:13:15.774Z,9.48
2022-09-27T06:18:18.187Z,9.44
2022-09-27T06:23:23.607Z,9.51
2022-09-27T06:28:26.548Z,9.55
2022-09-27T06:33:32.311Z,9.66
2022-09-27T06:38:37.120Z,9.74
2022-09-27T06:44:01.890Z,9.81
2022-09-27T06:49:29.361Z,9.82
2022-09-27T06:54:32.174Z,9.82
2022-09-27T06:59:53.007Z,9.88
2022-09-27T07:05:13.466Z,9.93
2022-09-27T07:10:39.909Z,9.95
2022-09-27T07:15:42.357Z,10.04
2022-09-27T07:20:48.025Z,10.17
2022-09-27T07:25:50.617Z,10.24
2022-09-27T07:30:55.875Z,10.41
2022-09-27T07:35:57.730Z,10.66
2022-09-27T07:41:06.454Z,10.78
2022-09-27T07:46:08.194Z,10.68
2022-09-27T07:51:28.740Z,10.75
2022-09-27T07:56:40.524Z,10.74
2022-09-27T08:01:46.495Z,10.43
2022-09-27T08:06:48.336Z,10.51
2022-09-27T08:11:49.976Z,10.65
2022-09-27T08:16:51.648Z,10.78
2022-09-27T08:22:09.632Z,10.75
2022-09-27T08:27:28.749Z,10.80
2022-09-27T08:32:37.091Z,10.72
2022-09-27T08:37:41.134Z,10.82
2022-09-27T08:42:58.873Z,10.75
2022-09-27T08:48:04.423Z,10.77
2022-09-27T08:53:28.192Z,10.54
2022-09-27T08:58:35.812Z,10.65
2022-09-27T09:03:55.365Z,10.63
2022-09-27T09:09:11.113Z,10.60
2022-09-27T09:14:30.428Z,10.52
2022-09-27T09:20:16.841Z,10.48
2022-09-27T09:25:29.403Z,10.48
2022-09-27T09:30:52.779Z,9.92
2022-09-27T09:36:13.949Z,9.50
2022-09-27T09:41:22.530Z,9.24
2022-09-27T09:46:46.543Z,9.06
2022-09-27T09:51:56.751Z,9.11
2022-09-27T09:57:11.614Z,9.22
2022-09-27T10:02:34.287Z,9.16
2022-09-27T10:07:45.848Z,9.34
2022-09-27T10:12:47.892Z,9.53
2022-09-27T10:17:54.697Z,9.64
2022-09-27T10:23:06.195Z,9.46
2022-09-27T10:28:32.968Z,10.22
2022-09-27T10:33:37.733Z,10.90
2022-09-27T10:38:52.636Z,11.45
2022-09-27T10:44:26.605Z,11.36
2022-09-27T10:49:41.958Z,10.89
2022-09-27T10:55:20.758Z,10.26
2022-09-27T11:00:31.352Z,10.10
2022-09-27T11:05:38.248Z,9.94
2022-09-27T11:10:40.406Z,9.69
2022-09-27T11:15:52.048Z,9.18
2022-09-27T11:21:09.996Z,9.16
2022-09-27T11:26:33.649Z,9.24
2022-09-27T11:32:13.889Z,9.85
2022-09-27T11:37:51.082Z,9.85
2022-09-27T11:43:27.058Z,9.88
2022-09-27T11:48:51.569Z,9.63
2022-09-27T11:54:06.362Z,9.68
2022-09-27T11:59:23.838Z,9.63
2022-09-27T12:04:51.010Z,9.78
2022-09-27T12:10:01.237Z,9.85
2022-09-27T12:15:13.139Z,10.05
2022-09-27T12:20:38.928Z,10.20
2022-09-27T12:25:42.754Z,10.27
2022-09-27T12:31:24.546Z,11.13
2022-09-27T12:36:25.810Z,11.78
2022-09-27T12:41:31.971Z,11.57
2022-09-27T12:47:11.360Z,10.63
2022-09-27T12:52:23.182Z,9.98
2022-09-27T12:57:35.043Z,9.70
2022-09-27T13:03:19.548Z,9.50
2022-09-27T13:08:56.585Z,9.55
2022-09-27T13:14:03.392Z,9.68
2022-09-27T13:19:05.738Z,11.29
2022-09-27T13:24:31.436Z,13.32
2022-09-27T13:29:34.076Z,11.92
2022-09-27T13:34:46.732Z,10.55
2022-09-27T13:40:24.503Z,9.96
2022-09-27T13:45:58.457Z,9.91
2022-09-27T13:51:38.553Z,9.84
2022-09-27T13:56:40.152Z,9.65
2022-09-27T14:01:51.258Z,9.49
2022-09-27T14:07:00.025Z,9.36
2022-09-27T14:12:26.926Z,10.25
2022-09-27T14:17:29.342Z,11.06
2022-09-27T14:22:34.986Z,10.66
2022-09-27T14:27:38.957Z,10.25
2022-09-27T14:32:58.450Z,9.89
2022-09-27T14:38:37.227Z,9.68
2022-09-27T14:43:50.104Z,9.44
2022-09-27T14:48:51.776Z,9.25
2022-09-27T14:54:00.668Z,9.21
2022-09-27T14:59:09.257Z,9.23
2022-09-27T15:04:15.102Z,9.31
2022-09-27T15:09:18.563Z,9.30
2022-09-27T15:14:22.410Z,9.34
2022-09-27T15:19:29.350Z,9.49
2022-09-27T15:24:47.286Z,9.83
2022-09-27T15:29:54.758Z,10.13
2022-09-27T15:35:05.601Z,10.26
2022-09-27T15:40:32.386Z,10.05
2022-09-27T15:45:37.260Z,9.97
2022-09-27T15:50:40.917Z,9.93
2022-09-27T15:55:45.118Z,9.81
2022-09-27T16:01:05.643Z,9.65
2022-09-27T16:06:07.367Z,9.51
2022-09-27T16:11:13.720Z,9.33
2022-09-27T16:16:17.905Z,8.81
2022-09-27T16:21:19.503Z,8.44
2022-09-27T16:26:21.167Z,8.23
2022-09-27T16:31:22.780Z,8.18
2022-09-27T16:36:24.393Z,7.99
2022-09-27T16:41:26.004Z,7.92
2022-09-27T16:46:27.637Z,7.83
2022-09-27T16:51:47.914Z,7.29
2022-09-27T16:56:53.256Z,6.49
2022-09-27T17:01:57.600Z,6.36
2022-09-27T17:06:59.708Z,6.37
2022-09-27T17:12:01.516Z,6.43
2022-09-27T17:17:03.327Z,6.47
2022-09-27T17:22:07.490Z,6.49
2022-09-27T17:27:09.291Z,6.51
2022-09-27T17:32:12.866Z,6.57
2022-09-27T17:37:14.616Z,6.60
2022-09-27T17:42:18.930Z,6.65
2022-09-27T17:47:39.122Z,6.69
2022-09-27T17:52:41.010Z,6.66
2022-09-27T17:57:42.841Z,6.65
2022-09-27T18:02:45.248Z,6.57
2022-09-27T18:07:47.292Z,6.68
2022-09-27T18:12:49.027Z,6.59
2022-09-27T18:17:55.774Z,6.64
2022-09-27T18:22:59.691Z,6.74
2022-09-27T18:28:01.689Z,6.69
2022-09-27T18:33:03.577Z,6.40
2022-09-27T18:38:05.340Z,6.21
2022-09-27T18:43:07.150Z,6.18
2022-09-27T18:48:09.575Z,6.17
2022-09-27T18:53:11.406Z,6.23
2022-09-27T18:58:16.030Z,6.26
2022-09-27T19:03:17.871Z,6.25
2022-09-27T19:08:19.673Z,6.22
2022-09-27T19:13:25.150Z,6.20
2022-09-27T19:18:30.212Z,6.05
2022-09-27T19:23:32.080Z,6.01
2022-09-27T19:28:39.597Z,6.27
2022-09-27T19:33:41.591Z,6.41
2022-09-27T19:38:43.832Z,6.65
2022-09-27T19:43:52.495Z,6.73
2022-09-27T19:48:56.204Z,6.82
2022-09-27T19:53:58.065Z,6.94
2022-09-27T19:59:03.724Z,6.93
2022-09-27T20:04:08.128Z,6.93
2022-09-27T20:09:10.042Z,6.93
2022-09-27T20:14:11.975Z,6.94
2022-09-27T20:19:13.768Z,6.92
2022-09-27T20:24:16.254Z,6.92
2022-09-27T20:29:18.092Z,6.91
2022-09-27T20:34:19.874Z,6.92
2022-09-27T20:39:22.999Z,6.85
2022-09-27T20:44:25.150Z,6.84
2022-09-27T20:49:27.015Z,6.87
2022-09-27T20:54:28.841Z,6.83
2022-09-27T20:59:30.599Z,6.83
2022-09-27T21:04:32.359Z,6.73
2022-09-27T21:09:35.939Z,6.60
2022-09-27T21:14:37.676Z,6.60
2022-09-27T21:19:41.698Z,6.64
2022-09-27T21:24:43.426Z,6.82
2022-09-27T21:29:45.168Z,6.92
2022-09-27T21:34:47.057Z,7.02
2022-09-27T21:39:48.936Z,7.02
2022-09-27T21:44:50.654Z,7.05
2022-09-27T21:49:52.390Z,7.06
2022-09-27T21:54:54.480Z,7.08
2022-09-27T21:59:57.087Z,7.13
2022-09-27T22:04:59.731Z,7.08
2022-09-27T22:10:01.544Z,7.13
2022-09-27T22:15:03.512Z,7.17
2022-09-27T22:20:05.745Z,7.18
2022-09-27T22:25:07.808Z,7.21
2022-09-27T22:30:09.967Z,7.12
2022-09-27T22:35:11.799Z,7.11
2022-09-27T22:40:13.916Z,7.04
2022-09-27T22:45:15.759Z,6.93
2022-09-27T22:50:17.461Z,6.86
2022-09-27T22:55:19.080Z,6.94
2022-09-27T23:00:20.814Z,6.96
2022-09-27T23:05:23.071Z,6.88
2022-09-27T23:10:24.717Z,6.82
2022-09-27T23:15:26.273Z,6.80
2022-09-27T23:20:29.730Z,6.74
2022-09-27T23:25:31.218Z,6.65
2022-09-27T23:30:33.023Z,6.65
2022-09-27T23:35:34.582Z,6.57
2022-09-27T23:40:36.665Z,6.49
2022-09-27T23:45:38.598Z,6.49
2022-09-27T23:50:44.131Z,6.48
2022-09-27T23:55:45.779Z,6.54
